SCEL/SCL METAR and TAF weather

Enter ICAO airport designator
Station Type Date Time Source
SCEL METAR 2021/01/27 14:00 UTC NOAA

SCEL 271400Z VRB02KT CAVOK 22/08 Q1015 NOSIG


Station Type Date Time Source
SCEL Decoded METAR 2021/01/27 14:00 UTC NOAA

Pudahuel, Chile (SCEL) 33-23S 070-47W 476M
Jan 27, 2021 - 09:00 AM EST / 2021.01.27 1400 UTC
Wind: Variable at 2 MPH (2 KT):0
Visibility: greater than 7 mile(s):0
Temperature: 71 F (22 C)
Dew Point: 46 F (8 C)
Relative Humidity: 40%
Pressure (altimeter): 29.97 in. Hg (1015 hPa)
ob: SCEL 271400Z VRB02KT CAVOK 22/08 Q1015 NOSIG
cycle: 14

Station Type Date Time Source
SCEL TAF 2021/01/27 12:03 UTC NOAA

TAF SCEL 271015Z 2712/2812 16004KT CAVOK TX29/2718Z TN13/2810Z
BECMG 2715/2717 18008KT
BECMG 2718/2720 21015KT
BECMG 2802/2804 15004KT
TEMPO 2810/2812 7000 NSC

Example: see airport list